Time;durP1;ratioP1;P1;durP2;ratioP2;P2;SDS_P1;SDS_P2;PMS_P1;PMS_P2;Temp;Humidity;BMP_temperature;BMP_pressure;BME280_temperature;BME280_humidity;BME280_pressure;Samples;Min_cycle;Max_cycle;Signal;HPM_P1;HPM_P2
2022/09/25 00:00:53;;;;;;;15.30;13.80;;;14.30;99.90;;;;;;5105404;28;20824;-72
2022/09/25 00:03:20;;;;;;;14.50;13.20;;;14.20;99.90;;;;;;5105304;28;20481;-72
2022/09/25 00:05:48;;;;;;;15.83;14.33;;;14.20;99.90;;;;;;5105594;28;20772;-72
2022/09/25 00:08:18;;;;;;;15.93;14.13;;;14.20;99.90;;;;;;5105872;28;20547;-72
2022/09/25 00:10:47;;;;;;;14.40;12.90;;;14.20;99.90;;;;;;5104946;28;20528;-72
2022/09/25 00:13:14;;;;;;;14.33;12.80;;;14.20;99.90;;;;;;5105505;28;20525;-72
2022/09/25 00:15:46;;;;;;;14.03;12.83;;;14.20;99.90;;;;;;5105690;28;20539;-72
2022/09/25 00:18:14;;;;;;;13.57;12.27;;;14.20;99.90;;;;;;5106057;28;20437;-72
2022/09/25 00:20:40;;;;;;;13.93;12.50;;;14.20;99.90;;;;;;5104624;28;20544;-72
2022/09/25 00:23:07;;;;;;;13.60;12.30;;;14.20;99.90;;;;;;5105898;28;20464;-72
2022/09/25 00:25:36;;;;;;;12.63;11.33;;;14.20;99.90;;;;;;5105637;28;20489;-72
2022/09/25 00:28:03;;;;;;;12.63;11.53;;;14.20;99.90;;;;;;5105158;28;20464;-72
2022/09/25 00:30:30;;;;;;;13.83;12.37;;;14.20;99.90;;;;;;5104215;28;20454;-72
2022/09/25 00:32:57;;;;;;;12.17;11.07;;;14.20;99.90;;;;;;5104930;28;20734;-72
2022/09/25 00:35:24;;;;;;;12.13;10.93;;;14.20;99.90;;;;;;5104376;28;20457;-73
2022/09/25 00:37:50;;;;;;;17.17;11.03;;;14.20;99.90;;;;;;5105160;28;20454;-72
2022/09/25 00:40:18;;;;;;;12.10;10.90;;;14.20;99.90;;;;;;5104598;28;20564;-73
2022/09/25 00:42:46;;;;;;;13.77;10.87;;;14.20;99.90;;;;;;5105065;28;20551;-73
2022/09/25 00:45:18;;;;;;;10.50;9.50;;;14.10;99.90;;;;;;5104954;28;20532;-73
2022/09/25 00:47:54;;;;;;;11.47;10.33;;;14.10;99.90;;;;;;5105330;28;20537;-73
2022/09/25 00:50:35;;;;;;;11.03;10.10;;;14.10;99.90;;;;;;5104983;28;20465;-73
2022/09/25 00:53:06;;;;;;;10.57;9.67;;;14.10;99.90;;;;;;5105348;28;20502;-73
2022/09/25 00:55:35;;;;;;;9.83;8.93;;;14.10;99.90;;;;;;5105861;28;20452;-73
2022/09/25 00:58:04;;;;;;;10.03;9.13;;;14.10;99.90;;;;;;5104564;28;20913;-73
2022/09/25 01:00:32;;;;;;;11.50;8.60;;;14.10;99.90;;;;;;5104811;28;20985;-73
2022/09/25 01:02:59;;;;;;;10.10;9.17;;;14.10;99.90;;;;;;5104822;28;20521;-73
2022/09/25 01:05:30;;;;;;;10.50;9.40;;;14.00;99.90;;;;;;5104698;28;20973;-72
2022/09/25 01:07:59;;;;;;;11.20;10.20;;;14.10;99.90;;;;;;5104779;28;20452;-73
2022/09/25 01:10:27;;;;;;;10.60;9.60;;;14.10;99.90;;;;;;5104449;28;20520;-73
2022/09/25 01:12:55;;;;;;;10.47;9.57;;;14.10;99.90;;;;;;5104786;28;20477;-73
2022/09/25 01:15:31;;;;;;;9.27;8.47;;;14.00;99.90;;;;;;5103917;28;20925;-73
2022/09/25 01:18:09;;;;;;;9.87;8.97;;;14.10;99.90;;;;;;5104563;28;20901;-73
2022/09/25 01:21:12;;;;;;;8.63;7.83;;;14.10;99.90;;;;;;5104132;28;20465;-73
2022/09/25 01:24:10;;;;;;;8.77;7.97;;;14.10;99.90;;;;;;5003357;28;20556;-73
2022/09/25 01:26:56;;;;;;;8.43;7.67;;;14.00;99.90;;;;;;5103982;28;20437;-73
2022/09/25 01:29:29;;;;;;;9.57;8.70;;;14.10;99.90;;;;;;5104429;28;20896;-73
2022/09/25 01:32:02;;;;;;;9.63;8.73;;;14.10;99.90;;;;;;5105095;28;20448;-73
2022/09/25 01:34:38;;;;;;;8.67;7.97;;;14.10;99.90;;;;;;5107066;28;20430;-73
2022/09/25 01:37:13;;;;;;;8.40;7.70;;;14.10;99.90;;;;;;5106748;28;20452;-73
2022/09/25 01:39:45;;;;;;;9.20;8.30;;;14.10;99.90;;;;;;5107484;28;20496;-73
2022/09/25 01:42:18;;;;;;;8.60;7.80;;;14.10;99.90;;;;;;5107967;28;20497;-73
2022/09/25 01:44:52;;;;;;;8.23;7.60;;;14.10;99.90;;;;;;5108416;28;20448;-73
2022/09/25 01:47:31;;;;;;;8.17;7.37;;;14.10;99.90;;;;;;5107989;28;20472;-73
2022/09/25 01:50:00;;;;;;;10.00;8.97;;;14.10;99.90;;;;;;5108390;28;20430;-73
2022/09/25 01:52:32;;;;;;;10.63;9.60;;;14.20;99.90;;;;;;5108299;28;20457;-73
2022/09/25 01:55:06;;;;;;;10.40;9.50;;;14.10;99.90;;;;;;5108548;28;20713;-73
2022/09/25 01:57:39;;;;;;;8.30;7.43;;;14.20;99.90;;;;;;5107471;28;20504;-72
2022/09/25 02:00:11;;;;;;;10.00;7.87;;;14.20;99.90;;;;;;5107616;28;20540;-73
2022/09/25 02:02:45;;;;;;;8.10;7.30;;;14.20;99.90;;;;;;5107938;28;20489;-73
2022/09/25 02:05:16;;;;;;;7.83;7.13;;;14.20;99.90;;;;;;5107745;28;20433;-73
2022/09/25 02:07:48;;;;;;;7.90;7.30;;;14.20;99.90;;;;;;5107022;28;20441;-73
2022/09/25 02:10:22;;;;;;;8.17;7.47;;;14.20;99.90;;;;;;5107277;28;20525;-73
2022/09/25 02:12:52;;;;;;;8.30;7.63;;;14.20;99.90;;;;;;5107836;28;20814;-73
2022/09/25 02:15:25;;;;;;;7.97;7.27;;;14.20;99.90;;;;;;5106470;28;20433;-73
2022/09/25 02:20:43;;;;;;;8.50;7.80;;;14.20;99.90;;;;;;5107114;28;20456;-73
2022/09/25 02:23:17;;;;;;;8.20;7.50;;;14.20;99.90;;;;;;5106764;28;20463;-73
2022/09/25 02:25:48;;;;;;;9.03;8.13;;;14.20;99.90;;;;;;5106886;28;20438;-73
2022/09/25 02:28:15;;;;;;;8.53;7.83;;;14.20;99.90;;;;;;5107634;28;20510;-73
2022/09/25 02:30:47;;;;;;;8.40;7.70;;;14.20;99.90;;;;;;5107956;28;20459;-73
2022/09/25 02:33:14;;;;;;;8.40;7.60;;;14.20;99.90;;;;;;5107557;28;20438;-73
2022/09/25 02:35:41;;;;;;;7.17;6.60;;;14.20;99.90;;;;;;5107619;28;20849;-73
2022/09/25 02:38:08;;;;;;;8.50;7.80;;;14.20;99.90;;;;;;5107499;28;20463;-73
2022/09/25 02:40:42;;;;;;;10.87;9.77;;;14.20;99.90;;;;;;5107281;28;20564;-73
2022/09/25 02:43:26;;;;;;;13.67;12.20;;;14.20;99.90;;;;;;5107384;28;20442;-73
2022/09/25 02:46:04;;;;;;;8.63;7.83;;;14.20;99.90;;;;;;5107854;28;20480;-73
2022/09/25 02:48:38;;;;;;;8.07;7.27;;;14.20;99.90;;;;;;5107653;28;20441;-73
2022/09/25 02:51:12;;;;;;;7.93;7.23;;;14.20;99.90;;;;;;5107705;28;20632;-73
2022/09/25 02:53:43;;;;;;;8.23;7.47;;;14.20;99.90;;;;;;5107418;28;20444;-73
2022/09/25 02:56:14;;;;;;;7.70;7.00;;;14.20;99.90;;;;;;5106950;28;20969;-73
2022/09/25 02:58:45;;;;;;;8.83;7.23;;;14.20;99.90;;;;;;5107176;28;20452;-73
2022/09/25 03:01:16;;;;;;;8.93;7.20;;;14.20;99.90;;;;;;5107065;28;20466;-73
2022/09/25 03:03:46;;;;;;;8.07;7.37;;;14.20;99.90;;;;;;5105894;28;20484;-73
2022/09/25 03:06:14;;;;;;;7.93;7.20;;;14.20;99.90;;;;;;5105552;28;20453;-73
2022/09/25 03:08:45;;;;;;;8.63;7.63;;;14.20;99.90;;;;;;5107163;28;20520;-73
2022/09/25 03:11:14;;;;;;;9.60;7.50;;;14.10;99.90;;;;;;5106849;28;20438;-73
2022/09/25 03:13:42;;;;;;;8.87;8.03;;;14.10;99.90;;;;;;5107055;28;20461;-73
2022/09/25 03:16:14;;;;;;;8.67;7.87;;;14.20;99.90;;;;;;5106142;28;20830;-73
2022/09/25 03:18:42;;;;;;;8.20;7.50;;;14.20;99.90;;;;;;5105985;28;20442;-73
2022/09/25 03:21:09;;;;;;;8.03;7.30;;;14.20;99.90;;;;;;5105331;28;20480;-73
2022/09/25 03:23:36;;;;;;;9.90;7.30;;;14.20;99.90;;;;;;5106367;28;20476;-73
2022/09/25 03:26:04;;;;;;;7.83;7.13;;;14.10;99.90;;;;;;5107400;28;20490;-73
2022/09/25 03:28:31;;;;;;;8.00;7.30;;;14.10;99.90;;;;;;5106856;28;20457;-73
2022/09/25 03:31:00;;;;;;;9.77;8.13;;;14.10;99.90;;;;;;5107175;28;20913;-73
2022/09/25 03:33:28;;;;;;;8.77;7.03;;;14.10;99.90;;;;;;5106771;28;20453;-73
2022/09/25 03:36:05;;;;;;;8.50;7.70;;;14.10;99.90;;;;;;5105669;28;20473;-73
2022/09/25 03:38:33;;;;;;;9.00;8.10;;;14.10;99.90;;;;;;5106714;28;20524;-73
2022/09/25 03:40:59;;;;;;;8.40;7.70;;;14.10;99.90;;;;;;5105682;28;20481;-73
2022/09/25 03:43:26;;;;;;;8.23;7.43;;;14.10;99.90;;;;;;5106117;28;20540;-72
2022/09/25 03:45:53;;;;;;;8.20;7.40;;;14.10;99.90;;;;;;5105688;28;20459;-72
2022/09/25 03:48:20;;;;;;;7.60;7.00;;;14.00;99.90;;;;;;5105475;28;20481;-72
2022/09/25 03:50:48;;;;;;;9.90;7.63;;;14.10;99.90;;;;;;5106113;28;20463;-72
2022/09/25 03:53:18;;;;;;;8.17;7.47;;;14.00;99.90;;;;;;5105968;28;20463;-72
2022/09/25 03:55:47;;;;;;;8.67;7.93;;;14.10;99.90;;;;;;5105773;28;20457;-72
2022/09/25 03:58:15;;;;;;;8.30;7.50;;;14.00;99.90;;;;;;5102104;28;20460;-72
2022/09/25 04:00:42;;;;;;;8.00;7.30;;;14.00;99.90;;;;;;5102538;28;20477;-72
2022/09/25 04:03:09;;;;;;;8.37;7.67;;;14.00;99.90;;;;;;5105326;28;20548;-72
2022/09/25 04:05:37;;;;;;;9.33;7.50;;;14.00;99.90;;;;;;5105437;28;20464;-73
2022/09/25 04:08:04;;;;;;;11.17;8.10;;;14.00;99.90;;;;;;5104978;28;20453;-72
2022/09/25 04:10:37;;;;;;;8.60;7.87;;;14.00;99.90;;;;;;5104943;28;20445;-72
2022/09/25 04:13:04;;;;;;;8.87;7.97;;;14.00;99.90;;;;;;5104915;28;20900;-72
2022/09/25 04:15:32;;;;;;;8.73;8.00;;;14.00;99.90;;;;;;5104548;28;20481;-72
2022/09/25 04:17:59;;;;;;;8.83;8.03;;;14.00;99.90;;;;;;5104454;28;20449;-72
2022/09/25 04:20:26;;;;;;;9.13;8.27;;;13.90;99.90;;;;;;5105216;28;20572;-72
2022/09/25 04:22:53;;;;;;;9.73;8.83;;;14.00;99.90;;;;;;5105047;28;20458;-72
2022/09/25 04:25:24;;;;;;;9.63;8.70;;;14.00;99.90;;;;;;5105627;28;20544;-72
2022/09/25 04:27:54;;;;;;;9.90;8.90;;;13.90;99.90;;;;;;5105339;28;20517;-71
2022/09/25 04:30:21;;;;;;;9.07;8.17;;;13.90;99.90;;;;;;5104996;28;20449;-73
2022/09/25 04:35:32;;;;;;;11.70;10.60;;;13.90;99.90;;;;;;5104945;28;20425;-72
2022/09/25 04:37:59;;;;;;;10.07;9.10;;;13.90;99.90;;;;;;5104824;28;20834;-72
2022/09/25 04:40:26;;;;;;;8.60;7.87;;;13.90;99.90;;;;;;5104785;28;20477;-72
2022/09/25 04:42:57;;;;;;;9.57;8.67;;;13.90;99.90;;;;;;5104275;28;20461;-72
2022/09/25 04:45:25;;;;;;;9.60;8.70;;;13.90;99.90;;;;;;5104627;28;20509;-71
2022/09/25 04:47:52;;;;;;;10.03;9.10;;;13.90;99.90;;;;;;5104278;28;20456;-72
2022/09/25 04:50:19;;;;;;;9.80;8.80;;;13.90;99.90;;;;;;5105163;28;20521;-72
2022/09/25 04:52:46;;;;;;;9.07;8.30;;;13.90;99.90;;;;;;5104806;28;20532;-71
2022/09/25 04:55:13;;;;;;;10.20;9.30;;;13.80;99.90;;;;;;5105309;28;20457;-72
2022/09/25 04:57:40;;;;;;;10.20;8.70;;;13.80;99.90;;;;;;5102527;28;20477;-72
2022/09/25 05:00:09;;;;;;;9.50;8.63;;;13.80;99.90;;;;;;5103171;28;20785;-72
2022/09/25 05:02:36;;;;;;;10.30;9.30;;;13.80;99.90;;;;;;5103279;28;20488;-72
2022/09/25 05:05:03;;;;;;;11.23;8.87;;;13.80;99.90;;;;;;5103093;28;20485;-72
2022/09/25 05:07:30;;;;;;;9.47;8.57;;;13.80;99.90;;;;;;5101874;28;20542;-73
2022/09/25 05:09:57;;;;;;;11.33;9.70;;;13.80;99.90;;;;;;5102177;28;20457;-72
2022/09/25 05:12:24;;;;;;;9.67;8.77;;;13.80;99.90;;;;;;5102464;28;20449;-73
2022/09/25 05:14:51;;;;;;;11.50;10.33;;;13.80;99.90;;;;;;5102348;28;20453;-72
2022/09/25 05:17:19;;;;;;;11.77;10.30;;;13.80;99.90;;;;;;5102506;28;20481;-72
2022/09/25 05:19:46;;;;;;;10.47;9.47;;;13.80;99.90;;;;;;5102371;28;20477;-72
2022/09/25 05:22:13;;;;;;;11.93;10.77;;;13.80;99.90;;;;;;5101862;28;20544;-72
2022/09/25 05:24:39;;;;;;;9.43;8.53;;;13.80;99.90;;;;;;5101834;28;20536;-73
2022/09/25 05:27:07;;;;;;;10.17;9.17;;;13.80;99.90;;;;;;5102478;28;20485;-72
2022/09/25 05:29:34;;;;;;;10.30;9.13;;;13.80;99.90;;;;;;5102042;28;20453;-73
2022/09/25 05:32:01;;;;;;;12.63;9.60;;;13.80;99.90;;;;;;5103072;28;20464;-72
2022/09/25 05:34:29;;;;;;;10.53;9.47;;;13.80;99.90;;;;;;5103720;28;20506;-73
2022/09/25 05:36:56;;;;;;;11.00;10.00;;;13.70;99.90;;;;;;5101265;28;20468;-72
2022/09/25 05:39:23;;;;;;;10.03;9.03;;;13.70;99.90;;;;;;5103113;28;20850;-72
2022/09/25 05:41:50;;;;;;;11.43;10.30;;;13.70;99.90;;;;;;5103039;28;20483;-72
2022/09/25 05:44:17;;;;;;;10.60;9.60;;;13.70;99.90;;;;;;5102981;28;20518;-72
2022/09/25 05:46:44;;;;;;;10.73;9.73;;;13.70;99.90;;;;;;5103558;28;20517;-73
2022/09/25 05:49:11;;;;;;;11.30;10.30;;;13.70;99.90;;;;;;5104613;28;20453;-72
2022/09/25 05:51:39;;;;;;;11.43;10.23;;;13.70;99.90;;;;;;5102991;28;20449;-72
2022/09/25 05:54:06;;;;;;;11.20;9.10;;;13.70;99.90;;;;;;5103697;28;20485;-72
2022/09/25 05:56:33;;;;;;;10.53;9.40;;;13.70;99.90;;;;;;5103275;28;20457;-72
2022/09/25 05:59:00;;;;;;;11.70;10.50;;;13.70;99.90;;;;;;5103735;28;20457;-72
2022/09/25 06:01:27;;;;;;;12.13;10.80;;;13.70;99.90;;;;;;5101401;28;20492;-72
2022/09/25 06:03:53;;;;;;;11.40;10.37;;;13.70;99.90;;;;;;5101936;28;21048;-72
2022/09/25 06:06:20;;;;;;;10.70;9.70;;;13.70;99.90;;;;;;5102846;28;20469;-73
2022/09/25 06:08:48;;;;;;;12.13;9.97;;;13.70;99.90;;;;;;5102792;28;20464;-73
2022/09/25 06:11:15;;;;;;;12.03;10.73;;;13.70;99.90;;;;;;5102271;28;20537;-73
2022/09/25 06:13:43;;;;;;;11.73;10.53;;;13.80;99.90;;;;;;5102542;28;20544;-73
2022/09/25 06:16:15;;;;;;;10.97;10.03;;;13.80;99.90;;;;;;5102365;28;20461;-73
2022/09/25 06:18:43;;;;;;;12.00;10.37;;;13.90;99.90;;;;;;5104300;28;20828;-73
2022/09/25 06:21:10;;;;;;;11.20;10.10;;;14.00;99.90;;;;;;5105150;28;20477;-73
2022/09/25 06:23:36;;;;;;;12.90;10.30;;;14.00;99.90;;;;;;5106607;28;20449;-73
2022/09/25 06:26:08;;;;;;;11.30;10.20;;;14.20;99.90;;;;;;5106007;28;20492;-75
2022/09/25 06:28:35;;;;;;;10.90;9.90;;;14.20;99.90;;;;;;5105001;28;20438;-73
2022/09/25 06:31:02;;;;;;;11.70;10.50;;;14.30;99.90;;;;;;5104025;28;20839;-73
2022/09/25 06:33:29;;;;;;;11.53;10.53;;;14.30;99.90;;;;;;5104583;28;20464;-73
2022/09/25 06:35:55;;;;;;;13.20;11.53;;;14.40;99.90;;;;;;5104129;28;20450;-73
2022/09/25 06:38:24;;;;;;;12.73;11.00;;;14.50;99.90;;;;;;5104186;28;20450;-72
2022/09/25 06:40:51;;;;;;;12.40;11.20;;;14.60;99.90;;;;;;5104153;28;20453;-72
2022/09/25 06:43:19;;;;;;;11.87;10.73;;;14.60;99.90;;;;;;5104332;28;20493;-73
2022/09/25 06:45:47;;;;;;;12.40;11.20;;;14.60;99.90;;;;;;5103005;28;20449;-72
2022/09/25 06:48:15;;;;;;;14.70;11.40;;;14.70;99.90;;;;;;5103452;28;20457;-72
2022/09/25 06:50:45;;;;;;;11.80;10.10;;;14.60;99.90;;;;;;5106963;28;20457;-72
2022/09/25 06:53:12;;;;;;;13.03;11.63;;;14.60;99.90;;;;;;5108778;28;20461;-72
2022/09/25 06:55:40;;;;;;;12.20;11.10;;;14.60;99.90;;;;;;5108792;28;20473;-72
2022/09/25 06:58:10;;;;;;;11.97;9.70;;;14.50;99.90;;;;;;5109153;28;20500;-72
2022/09/25 07:00:38;;;;;;;11.20;10.20;;;14.50;99.90;;;;;;5108191;28;20545;-72
2022/09/25 07:05:49;;;;;;;11.37;10.37;;;14.60;99.90;;;;;;5107164;28;20940;-73
2022/09/25 07:08:19;;;;;;;12.10;10.90;;;14.70;99.90;;;;;;5101801;28;20536;-72
2022/09/25 07:10:50;;;;;;;11.33;10.23;;;14.80;99.90;;;;;;5096923;28;20512;-71
2022/09/25 07:13:17;;;;;;;12.63;11.53;;;14.90;99.90;;;;;;5096611;28;20457;-72
2022/09/25 07:15:51;;;;;;;12.50;11.20;;;14.90;99.90;;;;;;5097027;28;20772;-72
2022/09/25 07:18:18;;;;;;;12.23;10.93;;;14.90;99.90;;;;;;5096884;28;20452;-72
2022/09/25 07:20:45;;;;;;;12.57;11.37;;;14.90;99.90;;;;;;5096849;28;20457;-71
2022/09/25 07:23:12;;;;;;;12.20;11.00;;;14.90;99.90;;;;;;5096720;28;20449;-72
2022/09/25 07:25:39;;;;;;;12.03;10.93;;;15.00;99.90;;;;;;5096923;28;20536;-71
2022/09/25 07:28:06;;;;;;;12.60;11.30;;;15.00;99.90;;;;;;5096909;28;20931;-71
2022/09/25 07:30:34;;;;;;;14.83;10.83;;;15.10;99.90;;;;;;5096601;28;20469;-72
2022/09/25 07:33:02;;;;;;;12.50;11.00;;;15.20;99.90;;;;;;5096982;28;20924;-72
2022/09/25 07:35:28;;;;;;;13.03;10.90;;;15.30;99.90;;;;;;5096525;28;20458;-72
2022/09/25 07:37:56;;;;;;;12.57;11.37;;;15.40;99.90;;;;;;5096310;28;20918;-72
2022/09/25 07:40:23;;;;;;;11.80;10.60;;;15.60;99.90;;;;;;5096612;28;20450;-71
2022/09/25 07:42:50;;;;;;;12.00;10.93;;;15.70;99.90;;;;;;5098231;28;20491;-70
2022/09/25 07:45:18;;;;;;;11.53;10.03;;;15.90;99.90;;;;;;5098220;28;20751;-72
2022/09/25 07:47:45;;;;;;;11.83;10.77;;;15.90;99.90;;;;;;5097894;28;20493;-72
2022/09/25 07:50:13;;;;;;;12.00;10.70;;;15.90;99.90;;;;;;5098202;28;20458;-72
2022/09/25 07:52:40;;;;;;;12.10;10.87;;;15.90;99.90;;;;;;5098116;28;20748;-72
2022/09/25 07:55:08;;;;;;;12.90;11.57;;;15.90;99.90;;;;;;5098292;28;20511;-72
2022/09/25 07:57:35;;;;;;;13.97;11.40;;;15.90;99.90;;;;;;5097859;28;20542;-72
2022/09/25 08:00:03;;;;;;;12.40;11.17;;;15.90;99.90;;;;;;5097466;28;20853;-72
2022/09/25 08:02:30;;;;;;;12.10;10.93;;;15.90;99.90;;;;;;5097684;28;20531;-72
2022/09/25 08:04:57;;;;;;;13.00;10.70;;;15.90;99.90;;;;;;5098578;28;20869;-72
2022/09/25 08:07:25;;;;;;;11.70;10.60;;;15.90;99.90;;;;;;5101092;28;20453;-72
2022/09/25 08:09:53;;;;;;;11.37;10.27;;;15.90;99.90;;;;;;5102665;28;20499;-73
2022/09/25 08:12:23;;;;;;;13.80;10.90;;;15.90;99.90;;;;;;5097072;28;20458;-73
2022/09/25 08:14:50;;;;;;;12.83;11.20;;;16.10;99.90;;;;;;5096205;28;20766;-73
2022/09/25 08:17:17;;;;;;;13.53;12.20;;;16.20;99.90;;;;;;5095790;28;20785;-72
2022/09/25 08:19:44;;;;;;;11.63;10.40;;;16.30;99.90;;;;;;5095531;28;20489;-73
2022/09/25 08:22:11;;;;;;;12.33;11.03;;;16.30;99.90;;;;;;5095513;28;20488;-73
2022/09/25 08:24:40;;;;;;;14.57;11.43;;;16.40;99.90;;;;;;5096434;28;20484;-73
2022/09/25 08:27:07;;;;;;;12.40;11.20;;;16.40;99.90;;;;;;5095322;28;20461;-72
2022/09/25 08:29:34;;;;;;;12.67;11.00;;;16.40;99.90;;;;;;5095860;28;20457;-72
2022/09/25 08:32:01;;;;;;;13.93;11.10;;;16.50;99.90;;;;;;5095981;28;20784;-72
2022/09/25 08:34:31;;;;;;;14.23;12.87;;;16.60;99.90;;;;;;5095912;28;20464;-73
2022/09/25 08:36:58;;;;;;;12.23;10.97;;;16.60;99.90;;;;;;5095667;28;20485;-74
2022/09/25 08:39:26;;;;;;;12.07;10.73;;;16.70;99.90;;;;;;5098097;28;20862;-73
2022/09/25 08:41:56;;;;;;;11.90;10.80;;;16.80;99.90;;;;;;5099173;28;20485;-73
2022/09/25 08:44:28;;;;;;;12.47;11.27;;;17.00;99.90;;;;;;5100724;28;20483;-73
2022/09/25 08:49:45;;;;;;;11.93;10.83;;;17.30;99.90;;;;;;5100135;28;20468;-73
2022/09/25 08:52:15;;;;;;;12.90;11.70;;;17.50;99.90;;;;;;5098590;28;20442;-72
2022/09/25 08:54:42;;;;;;;14.73;11.03;;;17.60;99.90;;;;;;5096314;28;20449;-72
2022/09/25 08:57:28;;;;;;;13.03;10.47;;;17.70;99.90;;;;;;5095796;28;20551;-72
2022/09/25 08:59:58;;;;;;;13.50;11.83;;;17.80;99.90;;;;;;5095736;28;20444;-72
2022/09/25 09:02:36;;;;;;;12.70;11.60;;;17.80;99.90;;;;;;5095310;28;20866;-72
2022/09/25 09:05:07;;;;;;;11.67;10.47;;;17.80;99.90;;;;;;5095071;28;20477;-72
2022/09/25 09:07:37;;;;;;;11.77;10.73;;;17.90;99.90;;;;;;5095247;28;20455;-73
2022/09/25 09:10:16;;;;;;;12.30;10.60;;;18.00;99.90;;;;;;5094972;28;20441;-71
2022/09/25 09:12:50;;;;;;;11.60;10.47;;;18.00;99.90;;;;;;5099826;28;20464;-73
2022/09/25 09:15:27;;;;;;;12.03;10.77;;;18.00;99.90;;;;;;5100257;28;20441;-71
2022/09/25 09:17:56;;;;;;;14.33;11.13;;;18.00;99.90;;;;;;5102479;28;20951;-72
2022/09/25 09:20:30;;;;;;;12.70;11.50;;;17.90;99.90;;;;;;5100927;28;20863;-72
2022/09/25 09:22:58;;;;;;;11.90;10.70;;;17.90;99.90;;;;;;5098305;28;20464;-73
2022/09/25 09:25:34;;;;;;;11.70;10.50;;;17.80;99.90;;;;;;5096481;28;20515;-73
2022/09/25 09:28:20;;;;;;;13.53;11.40;;;17.70;99.90;;;;;;5095420;28;20539;-73
2022/09/25 09:30:55;;;;;;;13.43;12.13;;;17.60;99.90;;;;;;5094741;28;20442;-72
2022/09/25 09:33:43;;;;;;;12.30;11.10;;;17.60;99.90;;;;;;5095117;28;20936;-73
2022/09/25 09:36:17;;;;;;;12.37;11.17;;;17.50;99.90;;;;;;5094550;28;20517;-72
2022/09/25 09:38:53;;;;;;;14.17;12.70;;;17.60;99.90;;;;;;5094798;28;20446;-72
2022/09/25 09:41:36;;;;;;;14.10;12.80;;;17.60;99.90;;;;;;5098355;28;20441;-73
2022/09/25 09:44:24;;;;;;;14.30;12.70;;;17.50;99.90;;;;;;5106981;28;20457;-73
2022/09/25 09:46:59;;;;;;;13.27;12.07;;;17.60;99.90;;;;;;5105290;28;20434;-73
2022/09/25 09:49:34;;;;;;;12.47;11.37;;;17.70;99.90;;;;;;5099896;28;20441;-72
2022/09/25 09:52:06;;;;;;;13.83;12.60;;;17.80;99.90;;;;;;5099301;28;20433;-73
2022/09/25 09:54:41;;;;;;;14.93;11.53;;;18.00;99.90;;;;;;5103479;28;20541;-73
2022/09/25 09:57:20;;;;;;;12.57;11.37;;;18.20;99.90;;;;;;5103252;28;20451;-72
2022/09/25 09:59:53;;;;;;;15.83;13.30;;;18.30;99.90;;;;;;5105157;28;20442;-73
2022/09/25 10:02:30;;;;;;;14.20;12.77;;;18.30;99.90;;;;;;5099560;28;20461;-73
2022/09/25 10:05:00;;;;;;;14.43;13.03;;;18.30;99.90;;;;;;5097909;28;20484;-74
2022/09/25 10:07:34;;;;;;;13.60;12.30;;;18.30;99.90;;;;;;5098524;28;20452;-72
2022/09/25 10:10:01;;;;;;;13.13;11.83;;;18.30;99.90;;;;;;5099145;28;20449;-71
2022/09/25 10:12:32;;;;;;;13.23;12.00;;;18.30;99.90;;;;;;5099007;28;20460;-72
2022/09/25 10:15:07;;;;;;;13.07;11.70;;;18.40;99.90;;;;;;5098458;28;20548;-72
2022/09/25 10:17:38;;;;;;;14.13;12.77;;;18.60;99.90;;;;;;5098543;28;20476;-72
2022/09/25 10:20:15;;;;;;;16.43;13.40;;;18.70;99.90;;;;;;5097838;28;20438;-72
2022/09/25 10:22:45;;;;;;;12.53;11.33;;;18.70;99.90;;;;;;5097794;28;20457;-72
2022/09/25 10:25:12;;;;;;;13.70;12.40;;;18.70;99.90;;;;;;5099081;28;20469;-72
2022/09/25 10:27:44;;;;;;;13.03;11.70;;;18.60;99.90;;;;;;5100168;28;20453;-72
2022/09/25 10:30:21;;;;;;;13.07;11.77;;;18.60;99.90;;;;;;5098750;28;20442;-72
2022/09/25 10:33:01;;;;;;;13.57;12.27;;;18.70;99.90;;;;;;5097894;28;20433;-72
2022/09/25 10:35:39;;;;;;;12.97;11.70;;;18.80;99.90;;;;;;5103046;28;20751;-72
2022/09/25 10:38:21;;;;;;;16.30;11.73;;;18.90;99.90;;;;;;5106284;28;20452;-72
2022/09/25 10:41:01;;;;;;;13.87;12.43;;;19.00;99.90;;;;;;5098660;28;20506;-72
2022/09/25 10:43:28;;;;;;;13.10;11.80;;;19.10;99.90;;;;;;5098209;28;20845;-73
2022/09/25 10:46:08;;;;;;;17.37;12.40;;;19.30;99.90;;;;;;5097502;28;20553;-72
2022/09/25 10:51:22;;;;;;;13.70;11.10;;;19.30;99.90;;;;;;5097325;28;20753;-72
2022/09/25 10:53:51;;;;;;;12.67;11.47;;;19.40;99.90;;;;;;5097458;28;20749;-72
2022/09/25 10:56:25;;;;;;;12.57;11.30;;;19.40;99.90;;;;;;5097485;28;20540;-72
2022/09/25 10:58:55;;;;;;;12.70;11.50;;;19.30;99.90;;;;;;5097121;28;20441;-72
2022/09/25 11:01:34;;;;;;;13.30;12.00;;;19.30;99.90;;;;;;5097180;28;20536;-73
2022/09/25 11:04:02;;;;;;;13.93;11.60;;;19.30;99.90;;;;;;5096168;28;20491;-72
2022/09/25 11:06:34;;;;;;;13.77;12.37;;;19.40;99.90;;;;;;5096871;28;20481;-72
2022/09/25 11:09:10;;;;;;;12.73;11.43;;;19.50;99.90;;;;;;5096554;28;20537;-72
2022/09/25 11:11:39;;;;;;;13.50;12.20;;;19.60;99.90;;;;;;5096359;28;20502;-73
2022/09/25 11:14:20;;;;;;;13.63;12.23;;;19.80;99.90;;;;;;5096867;28;20488;-73
2022/09/25 11:16:54;;;;;;;11.00;9.90;;;19.90;99.90;;;;;;5096543;28;20539;-72
2022/09/25 11:19:28;;;;;;;13.13;11.13;;;20.00;99.90;;;;;;5096845;28;20847;-72
2022/09/25 11:22:07;;;;;;;12.77;11.47;;;20.20;99.90;;;;;;5097065;28;20488;-72
2022/09/25 11:24:45;;;;;;;13.23;11.90;;;20.40;99.90;;;;;;5097133;28;20467;-72
2022/09/25 11:27:17;;;;;;;14.43;12.93;;;20.50;99.90;;;;;;5096575;28;20438;-74
2022/09/25 11:29:53;;;;;;;14.67;13.27;;;20.60;99.90;;;;;;5096405;28;20446;-72
2022/09/25 11:32:26;;;;;;;13.20;11.90;;;20.70;99.90;;;;;;5096880;28;20494;-72
2022/09/25 11:35:04;;;;;;;13.17;11.83;;;20.80;99.90;;;;;;5096764;28;20453;-72
2022/09/25 11:37:38;;;;;;;11.87;10.77;;;20.90;99.90;;;;;;5096806;28;20442;-73
2022/09/25 11:43:13;;;;;;;10.07;9.17;;;21.10;99.90;;;;;;5096297;28;20463;-71
2022/09/25 11:45:46;;;;;;;12.43;11.13;;;21.20;99.90;;;;;;5096439;28;20445;-71
2022/09/25 11:48:21;;;;;;;11.57;10.47;;;21.50;99.90;;;;;;5095830;28;20460;-71
2022/09/25 11:50:59;;;;;;;11.20;10.10;;;21.80;99.90;;;;;;5096403;28;20755;-71
2022/09/25 11:53:32;;;;;;;9.73;8.73;;;22.10;99.90;;;;;;5096603;28;20782;-71
2022/09/25 11:56:13;;;;;;;10.33;9.33;;;22.50;99.90;;;;;;5095717;28;20480;-71
2022/09/25 11:58:58;;;;;;;8.67;7.97;;;22.70;99.90;;;;;;5096238;28;20489;-71
2022/09/25 12:01:33;;;;;;;8.33;7.53;;;22.80;99.90;;;;;;5096100;28;20441;-71
2022/09/25 12:04:30;;;;;;;8.10;7.40;;;22.80;99.90;;;;;;5095435;28;20528;-72
2022/09/25 12:07:18;;;;;;;8.77;7.90;;;22.60;99.90;;;;;;5087115;28;20910;-72
2022/09/25 12:10:03;;;;;;;8.07;7.37;;;22.30;99.90;;;;;;5095714;28;20473;-72
2022/09/25 12:12:40;;;;;;;8.50;7.70;;;22.00;99.90;;;;;;5095705;28;20943;-72
2022/09/25 12:15:17;;;;;;;9.83;7.53;;;22.20;99.90;;;;;;5095832;28;20438;-72
2022/09/25 12:17:53;;;;;;;10.10;7.00;;;22.90;99.90;;;;;;5100546;28;20509;-72
2022/09/25 12:20:31;;;;;;;7.60;6.80;;;23.30;99.90;;;;;;5109275;28;20429;-71
2022/09/25 12:23:08;;;;;;;7.70;7.00;;;23.80;99.90;;;;;;5106205;28;20497;-72
2022/09/25 12:25:50;;;;;;;7.63;6.93;;;24.40;99.90;;;;;;5107387;28;20532;-72
2022/09/25 12:28:27;;;;;;;9.80;7.03;;;25.00;99.90;;;;;;5105755;28;20434;-72
2022/09/25 12:31:06;;;;;;;6.77;6.17;;;25.30;99.90;;;;;;5104376;28;20457;-73
2022/09/25 12:33:42;;;;;;;8.03;7.23;;;25.70;99.90;;;;;;5108617;28;20437;-72
2022/09/25 12:36:16;;;;;;;7.27;6.67;;;26.60;99.90;;;;;;5109289;28;20437;-72
2022/09/25 12:38:47;;;;;;;8.33;6.80;;;27.50;99.90;;;;;;5108353;28;20793;-73
2022/09/25 12:41:19;;;;;;;6.77;6.17;;;28.20;96.70;;;;;;5103052;28;20479;-73
2022/09/25 12:43:51;;;;;;;8.13;7.43;;;28.50;92.90;;;;;;5105437;28;20470;-73
2022/09/25 12:46:25;;;;;;;12.07;6.93;;;28.50;88.40;;;;;;5104300;28;20540;-72
2022/09/25 12:48:59;;;;;;;7.07;6.23;;;28.80;82.00;;;;;;5105082;28;20438;-72
2022/09/25 12:51:34;;;;;;;6.63;5.70;;;29.10;78.80;;;;;;5106984;28;20452;-72
2022/09/25 12:54:06;;;;;;;5.00;4.50;;;29.50;74.70;;;;;;5102999;28;20763;-72
2022/09/25 12:56:40;;;;;;;5.40;4.90;;;30.00;69.50;;;;;;5107275;28;20437;-72
2022/09/25 12:59:14;;;;;;;5.20;4.80;;;30.30;60.80;;;;;;5102406;28;20452;-72
2022/09/25 13:01:48;;;;;;;7.33;5.10;;;30.00;57.90;;;;;;5105067;28;20483;-72
2022/09/25 13:04:34;;;;;;;5.23;4.73;;;29.10;57.50;;;;;;5105956;28;20523;-71
2022/09/25 13:07:09;;;;;;;5.53;5.03;;;28.90;57.50;;;;;;5102930;28;20459;-72
2022/09/25 13:09:43;;;;;;;5.50;4.90;;;28.80;58.10;;;;;;5104343;28;20433;-72
2022/09/25 13:12:24;;;;;;;6.87;6.00;;;28.80;57.30;;;;;;5103518;28;20473;-72